Time;durP1;ratioP1;P1;durP2;ratioP2;P2;SDS_P1;SDS_P2;PMS_P1;PMS_P2;Temp;Humidity;BMP_temperature;BMP_pressure;BME280_temperature;BME280_humidity;BME280_pressure;Samples;Min_cycle;Max_cycle;Signal;HPM_P1;HPM_P2
2023/04/01 00:00:57;;;;;;;9.50;3.77;;;;;;;-143.84;68.02;45117.63;5047809;28;20488;-70
2023/04/01 00:03:25;;;;;;;6.40;3.17;;;;;;;-143.84;68.01;45117.63;5048541;28;20515;-70
2023/04/01 00:05:52;;;;;;;11.77;4.00;;;;;;;-143.84;68.02;45110.00;5048969;28;20464;-70
2023/04/01 00:08:19;;;;;;;5.33;3.57;;;;;;;-143.84;68.05;45121.44;5048805;28;20835;-70
2023/04/01 00:10:46;;;;;;;5.50;3.63;;;;;;;-143.84;68.27;45125.22;5048419;28;20483;-70
2023/04/01 00:13:14;;;;;;;8.60;3.63;;;;;;;-143.84;68.29;45115.72;5049513;28;20447;-70
2023/04/01 00:15:42;;;;;;;5.30;3.43;;;;;;;-143.84;68.25;45129.03;5052828;28;20459;-70
2023/04/01 00:18:11;;;;;;;9.27;4.97;;;;;;;-143.84;68.22;45129.03;5051842;28;20452;-70
2023/04/01 00:20:38;;;;;;;4.63;3.87;;;;;;;-143.84;68.23;45130.94;5050933;28;20456;-70
2023/04/01 00:23:06;;;;;;;3.50;3.20;;;;;;;-143.84;67.91;45144.28;5051635;28;20439;-70
2023/04/01 00:25:33;;;;;;;9.53;3.87;;;;;;;-143.84;68.20;45115.72;5051450;28;20445;-70
2023/04/01 00:28:00;;;;;;;8.70;3.77;;;;;;;-143.84;68.24;45100.47;5051081;28;20450;-70
2023/04/01 00:30:27;;;;;;;7.70;4.23;;;;;;;-143.84;67.94;45098.56;5051551;28;20440;-70
2023/04/01 00:32:54;;;;;;;7.93;3.57;;;;;;;-143.84;68.09;45121.44;5051789;28;20448;-70
2023/04/01 00:35:23;;;;;;;11.13;3.53;;;;;;;-143.84;67.92;45132.84;5051973;28;21031;-70
2023/04/01 00:37:50;;;;;;;21.30;4.00;;;;;;;-143.84;68.11;45125.22;5052095;28;20451;-70
2023/04/01 00:40:26;;;;;;;7.70;4.50;;;;;;;-143.84;67.67;45136.66;5052297;28;20437;-70
2023/04/01 00:42:54;;;;;;;12.37;3.77;;;;;;;-143.84;67.81;45125.22;5051820;28;20484;-70
2023/04/01 00:45:40;;;;;;;4.37;3.57;;;;;;;-143.84;68.10;45121.44;5052031;28;20439;-70
2023/04/01 00:48:11;;;;;;;10.30;3.60;;;;;;;-143.84;67.78;45146.19;5051464;28;20486;-70
2023/04/01 00:50:41;;;;;;;4.60;3.03;;;;;;;-143.84;67.87;45132.84;5050820;28;20444;-70
2023/04/01 00:53:09;;;;;;;3.00;2.80;;;;;;;-143.84;67.68;45098.56;5051188;28;20540;-70
2023/04/01 00:55:42;;;;;;;6.43;3.70;;;;;;;-143.84;67.18;45121.44;5051473;28;20792;-70
2023/04/01 00:58:14;;;;;;;6.83;3.33;;;;;;;-143.84;67.27;45119.53;5052064;28;20456;-70
2023/04/01 01:00:42;;;;;;;5.33;3.60;;;;;;;-143.84;67.41;45136.66;5051611;28;21002;-70
2023/04/01 01:03:09;;;;;;;6.30;3.50;;;;;;;-143.84;66.95;45136.66;5051522;28;20507;-70
2023/04/01 01:06:12;;;;;;;21.80;13.00;;;;;;;-143.84;67.90;45110.00;5051654;28;20882;-70
2023/04/01 01:08:58;;;;;;;11.80;7.40;;;;;;;-143.84;67.43;45125.22;5051784;28;20452;-70
2023/04/01 01:11:35;;;;;;;18.57;15.33;;;;;;;-143.84;68.55;45134.75;5051426;28;20545;-70
2023/04/01 01:14:12;;;;;;;18.23;12.40;;;;;;;-143.84;68.76;45121.44;5051537;28;20448;-70
2023/04/01 01:16:44;;;;;;;16.10;10.60;;;;;;;-143.84;68.68;45117.63;5050589;28;21060;-70
2023/04/01 01:19:27;;;;;;;21.10;12.77;;;;;;;-143.84;68.94;45125.22;5050364;28;20443;-70
2023/04/01 01:22:12;;;;;;;20.93;12.70;;;;;;;-143.84;69.60;45146.19;5050558;28;20510;-70
2023/04/01 01:24:56;;;;;;;21.20;13.63;;;;;;;-143.84;69.51;45096.66;5051138;28;20446;-70
2023/04/01 01:27:24;;;;;;;19.17;12.60;;;;;;;-143.84;70.40;45130.94;5051308;28;20456;-70
2023/04/01 01:30:13;;;;;;;20.47;11.00;;;;;;;-143.84;70.86;45159.50;5051138;28;20439;-70
2023/04/01 01:32:56;;;;;;;18.80;10.90;;;;;;;-143.84;71.44;45129.03;5051451;28;20851;-70
2023/04/01 01:35:30;;;;;;;15.13;7.20;;;;;;;-143.84;72.22;45125.22;5051121;28;20446;-70
2023/04/01 01:38:02;;;;;;;9.27;4.60;;;;;;;-143.84;73.01;45123.34;5050908;28;20465;-70
2023/04/01 01:40:31;;;;;;;13.77;5.03;;;;;;;-143.84;72.96;45132.84;5051194;28;20915;-70
2023/04/01 01:43:03;;;;;;;7.40;3.73;;;;;;;-143.84;73.13;45119.53;5050781;28;21029;-70
2023/04/01 01:45:31;;;;;;;7.43;3.63;;;;;;;-143.84;72.88;45113.81;5050726;28;20459;-70
2023/04/01 01:48:00;;;;;;;7.23;3.77;;;;;;;-143.84;72.71;45142.38;5050599;28;20447;-70
2023/04/01 01:50:30;;;;;;;6.10;3.90;;;;;;;-143.84;72.53;45130.94;5050940;28;20440;-69
2023/04/01 01:53:05;;;;;;;9.00;3.67;;;;;;;-143.84;72.22;45121.44;5050817;28;20442;-70
2023/04/01 01:55:35;;;;;;;8.43;4.10;;;;;;;-143.84;72.50;45129.03;5050853;28;20440;-70
2023/04/01 01:58:07;;;;;;;7.03;3.57;;;;;;;-143.84;71.96;45127.13;5050623;28;20472;-70
2023/04/01 02:00:35;;;;;;;6.90;4.07;;;;;;;-143.84;71.87;45102.38;5050580;28;20446;-70
2023/04/01 02:03:03;;;;;;;5.00;4.40;;;;;;;-143.84;71.66;45151.91;5050480;28;20918;-70
2023/04/01 02:05:32;;;;;;;7.67;3.23;;;;;;;-143.84;71.28;45098.56;5050488;28;20505;-69
2023/04/01 02:08:06;;;;;;;10.40;3.60;;;;;;;-143.84;71.37;45104.28;5049600;28;20450;-70
2023/04/01 02:10:37;;;;;;;6.83;4.33;;;;;;;-143.84;71.04;45132.84;5048732;28;20494;-69
2023/04/01 02:13:10;;;;;;;10.30;4.80;;;;;;;-143.84;70.82;45119.53;5049522;28;20941;-70
2023/04/01 02:15:42;;;;;;;10.27;5.37;;;;;;;-143.84;70.92;45146.19;5049442;28;20446;-70
2023/04/01 02:18:11;;;;;;;4.77;4.00;;;;;;;-143.84;71.09;45117.63;5049643;28;20443;-69
2023/04/01 02:20:42;;;;;;;15.63;4.47;;;;;;;-143.84;71.42;45123.34;5049817;28;20453;-69
2023/04/01 02:23:11;;;;;;;8.10;4.30;;;;;;;-143.84;71.26;45132.84;5049962;28;20557;-70
2023/04/01 02:25:40;;;;;;;7.30;3.93;;;;;;;-143.84;71.17;45119.53;5050219;28;20921;-70
2023/04/01 02:28:09;;;;;;;11.40;4.03;;;;;;;-143.84;71.04;45125.22;5050226;28;20503;-70
2023/04/01 02:30:40;;;;;;;9.43;3.90;;;;;;;-143.84;71.10;45113.81;5050021;28;20585;-70
2023/04/01 02:33:07;;;;;;;5.00;4.40;;;;;;;-143.84;71.13;45130.94;5049914;28;20437;-70
2023/04/01 02:35:37;;;;;;;8.80;4.13;;;;;;;-143.84;70.69;45123.34;5049696;28;20483;-69
2023/04/01 02:38:06;;;;;;;9.20;4.57;;;;;;;-143.84;70.48;45136.66;5049857;28;20443;-70
2023/04/01 02:40:43;;;;;;;8.50;4.00;;;;;;;-143.84;69.88;45130.94;5048811;28;20511;-70
2023/04/01 02:43:11;;;;;;;6.93;4.07;;;;;;;-143.84;69.69;45140.47;5049900;28;20550;-70
2023/04/01 02:45:38;;;;;;;7.47;3.20;;;;;;;-143.84;69.34;45125.22;5050036;28;20451;-70
2023/04/01 02:48:06;;;;;;;8.80;3.60;;;;;;;-143.84;68.83;45136.66;5049823;28;20436;-70
2023/04/01 02:50:33;;;;;;;6.67;3.20;;;;;;;-143.84;68.55;45142.38;5049912;28;20978;-70
2023/04/01 02:53:00;;;;;;;6.77;3.00;;;;;;;-143.84;68.35;45117.63;5049348;28;20463;-70
2023/04/01 02:55:29;;;;;;;6.83;3.70;;;;;;;-143.84;68.69;45115.72;5049529;28;20452;-70
2023/04/01 02:57:57;;;;;;;7.10;3.10;;;;;;;-143.84;68.38;45111.91;5049694;28;20442;-76
2023/04/01 03:00:24;;;;;;;7.83;3.23;;;;;;;-143.84;68.38;45134.75;5048568;28;20443;-76
2023/04/01 03:02:51;;;;;;;5.53;3.40;;;;;;;-143.84;68.24;45125.22;5049601;28;21004;-76
2023/04/01 03:05:18;;;;;;;4.80;3.13;;;;;;;-143.84;68.11;45113.81;5049489;28;20433;-76
2023/04/01 03:07:46;;;;;;;9.70;4.50;;;;;;;-143.84;68.26;45138.56;5049941;28;20443;-76
2023/04/01 03:10:13;;;;;;;8.10;3.73;;;;;;;-143.84;67.94;45132.84;5049700;28;20504;-76
2023/04/01 03:12:42;;;;;;;9.13;4.13;;;;;;;-143.84;68.12;45127.13;5050295;28;20450;-76
2023/04/01 03:15:11;;;;;;;11.40;4.20;;;;;;;-143.84;67.84;45129.03;5050686;28;20462;-76
2023/04/01 03:17:39;;;;;;;7.50;3.40;;;;;;;-143.84;67.76;45125.22;5050602;28;20510;-76
2023/04/01 03:20:08;;;;;;;7.80;3.43;;;;;;;-143.84;67.72;45127.13;5050498;28;20447;-76
2023/04/01 03:22:35;;;;;;;5.70;3.30;;;;;;;-143.84;67.75;45111.91;5050644;28;20522;-76
2023/04/01 03:25:02;;;;;;;9.43;4.13;;;;;;;-143.84;67.96;45136.66;5050247;28;20441;-78
2023/04/01 03:27:29;;;;;;;4.60;3.60;;;;;;;-143.84;67.62;45123.34;5050275;28;20439;-77
2023/04/01 03:29:58;;;;;;;5.33;4.63;;;;;;;-143.84;67.83;45121.44;5050379;28;20475;-76
2023/04/01 03:32:27;;;;;;;12.67;4.30;;;;;;;-143.84;67.91;45121.44;5049935;28;20947;-77
2023/04/01 03:34:54;;;;;;;5.60;4.23;;;;;;;-143.84;67.70;45132.84;5050581;28;20510;-77
2023/04/01 03:37:21;;;;;;;7.40;5.03;;;;;;;-143.84;67.44;45142.38;5050359;28;20441;-77
2023/04/01 03:39:48;;;;;;;10.90;6.00;;;;;;;-143.84;67.21;45129.03;5050485;28;20947;-77
2023/04/01 03:42:15;;;;;;;13.47;5.13;;;;;;;-143.84;66.93;45125.22;5049966;28;20491;-78
2023/04/01 03:44:42;;;;;;;13.83;4.30;;;;;;;-143.84;66.89;45121.44;5050069;28;20903;-77
2023/04/01 03:47:11;;;;;;;11.63;5.00;;;;;;;-143.84;67.07;45138.56;5049394;28;20978;-78
2023/04/01 03:49:38;;;;;;;11.00;5.13;;;;;;;-143.84;67.32;45125.22;5052597;28;20557;-76
2023/04/01 03:52:05;;;;;;;6.37;5.10;;;;;;;-143.84;67.64;45110.00;5052983;28;20457;-77
2023/04/01 03:54:33;;;;;;;7.07;5.37;;;;;;;-143.84;67.64;45138.56;5053951;28;20445;-77
2023/04/01 03:57:00;;;;;;;8.27;5.50;;;;;;;-143.84;67.80;45134.75;5054285;28;21265;-77
2023/04/01 03:59:27;;;;;;;12.70;6.00;;;;;;;-143.84;67.78;45138.56;5052976;28;20435;-77
2023/04/01 04:01:54;;;;;;;10.80;7.20;;;;;;;-143.84;67.97;45144.28;5053781;28;21317;-76
2023/04/01 04:04:23;;;;;;;13.77;7.57;;;;;;;-143.84;68.30;45130.94;5054333;28;20438;-76
2023/04/01 04:06:50;;;;;;;13.53;9.10;;;;;;;-143.84;68.35;45123.34;5054647;28;20435;-76
2023/04/01 04:09:17;;;;;;;57.63;31.70;;;;;;;-143.84;68.84;45140.47;5054331;28;20448;-77
2023/04/01 04:11:44;;;;;;;54.83;28.03;;;;;;;-143.84;69.01;45136.66;5052867;28;20476;-76
2023/04/01 04:14:11;;;;;;;50.57;23.33;;;;;;;-143.84;69.66;45129.03;5051395;28;20868;-76
2023/04/01 04:16:39;;;;;;;22.43;11.90;;;;;;;-143.84;69.98;45144.28;5052168;28;20451;-77
2023/04/01 04:19:06;;;;;;;18.00;8.20;;;;;;;-143.84;70.91;45115.72;5053053;28;20444;-77
2023/04/01 04:21:35;;;;;;;10.30;6.10;;;;;;;-143.84;71.05;45146.19;5053047;28;20501;-77
2023/04/01 04:24:04;;;;;;;10.33;5.70;;;;;;;-143.84;71.65;45108.09;5053648;28;20994;-77
2023/04/01 04:26:31;;;;;;;9.47;5.50;;;;;;;-143.84;72.01;45132.84;5054159;28;20435;-76
2023/04/01 04:28:58;;;;;;;7.23;4.50;;;;;;;-143.84;72.13;45125.22;5053819;28;20442;-76
2023/04/01 04:31:26;;;;;;;8.87;3.97;;;;;;;-143.84;72.45;45121.44;5054062;28;20448;-76
2023/04/01 04:33:53;;;;;;;7.17;4.63;;;;;;;-143.84;72.86;45125.22;5054167;28;20438;-76
2023/04/01 04:36:21;;;;;;;10.87;4.63;;;;;;;-143.84;72.69;45111.91;5053517;28;20828;-75
2023/04/01 04:38:50;;;;;;;9.87;4.53;;;;;;;-143.84;73.26;45117.63;5053597;28;21028;-77
2023/04/01 04:41:19;;;;;;;10.80;5.00;;;;;;;-143.84;73.54;45123.34;5053112;28;20927;-76
2023/04/01 04:43:52;;;;;;;9.20;4.87;;;;;;;-143.84;73.70;45127.13;5052951;28;20478;-74
2023/04/01 04:46:19;;;;;;;11.70;4.40;;;;;;;-143.84;73.72;45113.81;5052968;28;20527;-76
2023/04/01 04:48:47;;;;;;;6.13;4.63;;;;;;;-143.84;73.31;45151.91;5052453;28;20480;-76
2023/04/01 04:51:15;;;;;;;8.77;5.50;;;;;;;-143.84;73.38;45113.81;5052893;28;20511;-75
2023/04/01 04:53:43;;;;;;;11.83;4.50;;;;;;;-143.84;73.01;45123.34;5052700;28;20434;-73
2023/04/01 04:56:11;;;;;;;4.70;3.90;;;;;;;-143.84;72.88;45113.81;5052770;28;20442;-76
2023/04/01 04:58:40;;;;;;;9.83;4.70;;;;;;;-143.84;72.21;45125.22;5051690;28;20447;-74
2023/04/01 05:01:09;;;;;;;16.33;4.87;;;;;;;-143.84;71.45;45136.66;5051833;28;20807;-76
2023/04/01 05:03:36;;;;;;;11.07;3.67;;;;;;;-143.84;71.64;45100.47;5051901;28;20475;-77
2023/04/01 05:06:03;;;;;;;3.60;3.30;;;;;;;-143.84;70.87;45121.44;5051621;28;20449;-75
2023/04/01 05:08:30;;;;;;;9.83;4.73;;;;;;;-143.84;70.51;45098.56;5052205;28;20932;-74
2023/04/01 05:10:57;;;;;;;8.17;4.37;;;;;;;-143.84;69.60;45130.94;5051462;28;20487;-76
2023/04/01 05:13:26;;;;;;;16.13;4.27;;;;;;;-143.84;69.49;45110.00;5050718;28;20438;-74
2023/04/01 05:15:53;;;;;;;10.50;3.90;;;;;;;-143.84;69.09;45111.91;5050921;28;20453;-75
2023/04/01 05:18:20;;;;;;;10.37;4.40;;;;;;;-143.84;69.88;45129.03;5050257;28;20444;-75
2023/04/01 05:20:49;;;;;;;9.70;4.37;;;;;;;-143.84;69.89;45140.47;5050885;28;20834;-74
2023/04/01 05:23:16;;;;;;;7.90;4.97;;;;;;;-143.84;69.52;45146.19;5052658;28;20477;-75
2023/04/01 05:25:44;;;;;;;7.80;4.27;;;;;;;-143.84;69.70;45136.66;5052599;28;20466;-74
2023/04/01 05:28:12;;;;;;;7.80;3.70;;;;;;;-143.84;69.82;45132.84;5052293;28;20443;-74
2023/04/01 05:30:42;;;;;;;12.87;4.87;;;;;;;-143.84;69.89;45102.38;5052042;28;21260;-73
2023/04/01 05:33:10;;;;;;;17.23;5.30;;;;;;;-143.84;69.97;45108.09;5051539;28;20447;-71
2023/04/01 05:35:37;;;;;;;9.63;4.80;;;;;;;-143.84;70.12;45127.13;5050620;28;20507;-70
2023/04/01 05:38:05;;;;;;;15.53;6.47;;;;;;;-143.84;70.00;45140.47;5050654;28;20453;-70
2023/04/01 05:40:33;;;;;;;7.60;4.83;;;;;;;-143.84;69.92;45130.94;5050322;28;20502;-72
2023/04/01 05:43:01;;;;;;;10.50;4.27;;;;;;;-143.84;69.11;45115.72;5050295;28;20484;-70
2023/04/01 05:45:28;;;;;;;10.23;5.40;;;;;;;-143.84;69.54;45096.66;5050468;28;20450;-70
2023/04/01 05:47:58;;;;;;;7.40;4.73;;;;;;;-143.84;69.32;45115.72;5050489;28;20947;-70
2023/04/01 05:50:25;;;;;;;7.60;4.03;;;;;;;-143.84;68.83;45129.03;5050557;28;20862;-69
2023/04/01 05:52:52;;;;;;;6.90;3.87;;;;;;;-143.84;68.53;45108.09;5050356;28;20433;-70
2023/04/01 05:55:19;;;;;;;7.37;6.10;;;;;;;-143.84;68.70;45102.38;5050495;28;20942;-70
2023/04/01 05:57:48;;;;;;;9.90;5.80;;;;;;;-143.84;68.48;45123.34;5050593;28;20449;-69
2023/04/01 06:00:16;;;;;;;9.93;4.57;;;;;;;-143.84;67.90;45134.75;5050070;28;20453;-69
2023/04/01 06:02:43;;;;;;;5.90;4.87;;;;;;;-143.84;67.55;45106.19;5050141;28;20481;-70
2023/04/01 06:05:18;;;;;;;11.03;4.63;;;;;;;-143.84;67.25;45113.81;5050076;28;20509;-70
2023/04/01 06:07:46;;;;;;;10.80;5.73;;;;;;;-143.84;67.89;45115.72;5050185;28;20450;-70
2023/04/01 06:10:16;;;;;;;7.13;3.50;;;;;;;-143.84;66.40;45117.63;5049696;28;20561;-70
2023/04/01 06:13:04;;;;;;;4.77;3.20;;;;;;;-143.84;64.25;45121.44;5049832;28;20453;-71
2023/04/01 06:15:37;;;;;;;5.93;3.97;;;;;;;-143.84;62.09;45121.44;5050801;28;20448;-70
2023/04/01 06:18:39;;;;;;;12.93;3.73;;;;;;;-143.84;61.26;45106.19;5057902;28;21434;-69
2023/04/01 06:21:34;;;;;;;10.17;3.90;;;;;;;-143.84;60.75;45090.97;5068330;28;20436;-75
2023/04/01 06:24:17;;;;;;;12.10;4.03;;;;;;;-143.84;61.60;45104.28;5069569;28;21064;-74
2023/04/01 06:26:54;;;;;;;9.83;4.30;;;;;;;-143.84;61.29;45090.97;5067971;28;20452;-73
2023/04/01 06:29:44;;;;;;;5.67;4.20;;;;;;;-143.84;61.31;45119.53;5065936;28;20452;-73
2023/04/01 06:32:28;;;;;;;11.80;5.60;;;;;;;-143.84;61.73;45104.28;5065687;28;20958;-75
2023/04/01 06:35:16;;;;;;;5.90;3.70;;;;;;;-143.84;60.87;45129.03;5070813;28;20417;-76
2023/04/01 06:38:02;;;;;;;6.10;3.70;;;;;;;-143.84;62.21;45096.66;5070512;28;20429;-76
2023/04/01 06:40:51;;;;;;;8.53;3.73;;;;;;;-143.84;61.65;45129.03;5068921;28;20465;-76
2023/04/01 06:43:27;;;;;;;11.70;4.37;;;;;;;-143.84;63.06;45089.06;5068160;28;20577;-76
2023/04/01 06:46:02;;;;;;;7.50;3.80;;;;;;;-143.84;63.91;45129.03;5069042;28;20454;-75
2023/04/01 06:48:46;;;;;;;6.50;4.03;;;;;;;-143.84;63.66;45142.38;5069561;28;20440;-75
2023/04/01 06:51:25;;;;;;;7.93;3.93;;;;;;;-143.84;64.09;45123.34;5068640;28;20809;-75
2023/04/01 06:54:02;;;;;;;5.87;3.50;;;;;;;-143.84;65.08;45123.34;5068624;28;20445;-77
2023/04/01 06:56:30;;;;;;;12.00;4.30;;;;;;;-143.84;65.03;45117.63;5070308;28;20439;-76
2023/04/01 06:59:01;;;;;;;11.23;4.47;;;;;;;-143.84;66.40;45113.81;5070112;28;20462;-76
2023/04/01 07:01:33;;;;;;;10.10;5.57;;;;;;;-143.84;66.33;45108.09;5070828;28;20437;-76
2023/04/01 07:04:07;;;;;;;9.20;4.20;;;;;;;-143.84;66.44;45113.81;5070353;28;20529;-76
2023/04/01 07:06:39;;;;;;;9.33;4.97;;;;;;;-143.84;66.70;45106.19;5070582;28;20473;-76
2023/04/01 07:09:13;;;;;;;6.90;4.17;;;;;;;-143.84;67.47;45117.63;5070524;28;20936;-76
2023/04/01 07:11:41;;;;;;;10.43;4.83;;;;;;;-143.84;67.41;45125.22;5070540;28;20490;-76
2023/04/01 07:14:16;;;;;;;7.63;4.70;;;;;;;-143.84;67.92;45098.56;5070370;28;20429;-76
2023/04/01 07:16:49;;;;;;;6.90;4.33;;;;;;;-143.84;68.66;45108.09;5068782;28;20941;-75
2023/04/01 07:19:22;;;;;;;7.87;3.97;;;;;;;-143.84;67.65;45121.44;5070239;28;20448;-74
2023/04/01 07:21:52;;;;;;;8.20;4.60;;;;;;;-143.84;68.55;45127.13;5069624;28;20440;-73
2023/04/01 07:24:25;;;;;;;8.80;4.07;;;;;;;-143.84;67.28;45136.66;5068068;28;20559;-75
2023/04/01 07:26:55;;;;;;;8.37;4.07;;;;;;;-143.84;67.38;45104.28;5068869;28;20639;-74
2023/04/01 07:29:23;;;;;;;12.00;6.30;;;;;;;-143.84;67.30;45111.91;5068600;28;20449;-74
2023/04/01 07:32:15;;;;;;;7.67;4.73;;;;;;;-143.84;67.70;45092.88;5067973;28;20464;-74
2023/04/01 07:35:14;;;;;;;8.10;4.50;;;;;;;-143.84;68.26;45098.56;5065001;28;20459;-73
2023/04/01 07:37:52;;;;;;;8.30;4.13;;;;;;;-143.84;66.51;45110.00;5058396;28;20500;-75
2023/04/01 07:40:31;;;;;;;7.67;4.37;;;;;;;-143.84;65.72;45083.34;5062725;28;20443;-74
2023/04/01 07:43:19;;;;;;;8.07;4.23;;;;;;;-143.84;66.22;45113.81;5061329;28;20449;-74
2023/04/01 07:45:53;;;;;;;7.10;3.90;;;;;;;-143.84;66.36;45119.53;5053365;28;20795;-74
2023/04/01 07:48:32;;;;;;;7.43;4.00;;;;;;;-143.84;65.85;45096.66;5055398;28;20503;-75
2023/04/01 07:51:03;;;;;;;11.63;4.60;;;;;;;-143.84;66.08;45096.66;5050312;28;20644;-75
2023/04/01 07:53:38;;;;;;;18.53;4.20;;;;;;;-143.84;65.97;45119.53;5061424;28;20524;-73
2023/04/01 07:56:12;;;;;;;11.83;4.00;;;;;;;-143.84;66.14;45094.78;5065729;28;20452;-73
2023/04/01 07:58:52;;;;;;;17.43;4.40;;;;;;;-143.84;66.08;45096.66;5068871;28;20459;-73
2023/04/01 08:01:25;;;;;;;8.53;3.90;;;;;;;-143.84;67.11;45121.44;5067958;28;20455;-74
2023/04/01 08:04:12;;;;;;;8.60;4.77;;;;;;;-143.84;67.13;45130.94;5066983;28;20544;-74
2023/04/01 08:06:51;;;;;;;8.57;4.83;;;;;;;-143.84;68.07;45102.38;5064649;28;20443;-73
2023/04/01 08:09:28;;;;;;;14.53;4.73;;;;;;;-143.84;68.52;45106.19;5061436;28;20466;-77
2023/04/01 08:12:14;;;;;;;9.07;4.40;;;;;;;-143.84;69.15;45121.44;5068549;28;20546;-79
2023/04/01 08:14:53;;;;;;;18.40;4.87;;;;;;;-143.84;69.55;45108.09;5064651;28;20463;-76
2023/04/01 08:17:30;;;;;;;13.90;4.90;;;;;;;-143.84;68.86;45096.66;5054381;28;20453;-76
2023/04/01 08:20:15;;;;;;;12.93;4.20;;;;;;;-143.84;68.05;45125.22;5058071;28;20431;-76
2023/04/01 08:22:46;;;;;;;10.83;4.47;;;;;;;-143.84;66.97;45113.81;5057002;28;20436;-76
2023/04/01 08:25:21;;;;;;;10.33;4.93;;;;;;;-143.84;67.18;45115.72;5069795;28;20472;-77
2023/04/01 08:27:54;;;;;;;13.50;3.90;;;;;;;-143.84;66.65;45111.91;5070215;28;20432;-76
2023/04/01 08:30:25;;;;;;;17.93;4.60;;;;;;;-143.84;66.07;45098.56;5069798;28;20440;-76
2023/04/01 08:32:57;;;;;;;10.80;4.47;;;;;;;-143.84;67.38;45110.00;5070235;28;20509;-77
2023/04/01 08:35:32;;;;;;;18.20;7.60;;;;;;;-143.84;65.53;45094.78;5072749;28;20466;-76
2023/04/01 08:38:07;;;;;;;23.10;12.70;;;;;;;-143.84;65.74;45096.66;5073362;28;20463;-77
2023/04/01 08:41:07;;;;;;;13.07;5.47;;;;;;;-143.84;66.72;45089.06;5072252;28;20440;-78
2023/04/01 08:43:57;;;;;;;20.00;4.43;;;;;;;-143.84;67.73;45100.47;5057553;28;20476;-77
2023/04/01 08:46:47;;;;;;;13.30;4.77;;;;;;;-143.84;69.89;45121.44;5072758;28;20417;-77
2023/04/01 08:49:34;;;;;;;16.73;4.50;;;;;;;-143.84;68.31;45121.44;5074098;28;20425;-77
2023/04/01 08:52:23;;;;;;;16.53;5.20;;;;;;;-143.84;69.49;45102.38;5073283;28;20434;-77
2023/04/01 08:55:25;;;;;;;8.40;3.93;;;;;;;-143.84;69.22;45090.97;5070506;28;20861;-78
2023/04/01 08:58:08;;;;;;;6.53;4.23;;;;;;;-143.84;68.98;45113.81;5026526;28;20464;-78
2023/04/01 09:00:45;;;;;;;8.80;4.50;;;;;;;-143.84;68.78;45110.00;5063807;28;20789;-77
2023/04/01 09:03:27;;;;;;;10.60;5.47;;;;;;;-143.84;69.70;45090.97;5056899;28;20448;-78
2023/04/01 09:06:26;;;;;;;7.17;4.20;;;;;;;-143.84;67.35;45136.66;5062945;28;20442;-78
2023/04/01 09:09:07;;;;;;;12.40;4.60;;;;;;;-143.84;68.39;45110.00;5062715;28;20443;-78
2023/04/01 09:11:56;;;;;;;10.20;5.40;;;;;;;-143.84;69.71;45075.72;5073161;28;20472;-71
2023/04/01 09:14:46;;;;;;;7.80;5.27;;;;;;;-143.84;66.84;45108.09;5070503;28;20492;-71
2023/04/01 09:17:51;;;;;;;18.13;5.37;;;;;;;-143.84;65.21;45115.72;5091111;28;20959;-71
2023/04/01 09:20:59;;;;;;;7.07;5.03;;;;;;;-143.84;65.45;45089.06;5071944;28;20434;-71
2023/04/01 09:23:49;;;;;;;18.60;4.40;;;;;;;-143.84;63.89;45108.09;5042648;28;20436;-71
2023/04/01 09:26:43;;;;;;;9.97;4.97;;;;;;;-143.84;64.56;45079.53;5090479;28;20441;-71
2023/04/01 09:29:28;;;;;;;11.07;4.93;;;;;;;-143.84;64.51;45125.22;5091174;28;20462;-71
2023/04/01 09:32:14;;;;;;;7.30;4.90;;;;;;;-143.84;65.82;45094.78;5090982;28;20436;-71
2023/04/01 09:34:54;;;;;;;10.33;5.07;;;;;;;-143.84;67.16;45085.25;5091046;28;20875;-71
2023/04/01 09:37:26;;;;;;;22.90;5.40;;;;;;;-143.84;67.40;45108.09;5089781;28;20440;-71
2023/04/01 09:40:16;;;;;;;10.20;5.13;;;;;;;-143.84;67.92;45110.00;5090393;28;20509;-71
2023/04/01 09:42:53;;;;;;;8.60;5.27;;;;;;;-143.84;68.29;45111.91;5090162;28;20523;-71
2023/04/01 09:45:36;;;;;;;16.37;4.90;;;;;;;-143.84;67.51;45085.25;5089756;28;20903;-71
2023/04/01 09:48:15;;;;;;;18.00;4.20;;;;;;;-143.84;67.52;45094.78;5090804;28;20543;-71
2023/04/01 09:50:58;;;;;;;16.97;5.13;;;;;;;-143.84;67.06;45119.53;5090829;28;20441;-71
2023/04/01 09:53:37;;;;;;;12.53;3.90;;;;;;;-143.84;67.56;45111.91;5090310;28;20938;-71
2023/04/01 09:56:41;;;;;;;15.50;4.63;;;;;;;-143.84;67.68;45108.09;5090655;28;20495;-71
2023/04/01 09:59:43;;;;;;;11.00;5.10;;;;;;;-143.84;69.38;45094.78;5090581;28;20868;-71
2023/04/01 10:02:42;;;;;;;19.63;6.47;;;;;;;-143.84;69.89;45089.06;5073398;28;20458;-71
2023/04/01 10:05:53;;;;;;;23.97;7.50;;;;;;;-143.84;68.93;45083.34;5090234;28;21029;-71
2023/04/01 10:09:13;;;;;;;12.80;5.00;;;;;;;-143.84;68.17;45089.06;5089556;28;20447;-71
2023/04/01 10:12:18;;;;;;;18.43;6.80;;;;;;;-143.84;68.19;45098.56;5090065;28;20534;-71
2023/04/01 10:15:16;;;;;;;12.50;6.50;;;;;;;-143.84;67.75;45079.53;5090064;28;20925;-70
2023/04/01 10:18:12;;;;;;;12.37;4.90;;;;;;;-143.84;68.18;45106.19;5073099;28;20443;-71
2023/04/01 10:21:07;;;;;;;18.77;8.30;;;;;;;-143.84;67.58;45092.88;5089960;28;20436;-70
2023/04/01 10:24:11;;;;;;;19.00;6.13;;;;;;;-143.84;66.95;45106.19;5062852;28;20481;-71
2023/04/01 10:27:19;;;;;;;28.33;12.27;;;;;;;-143.84;66.88;45073.81;5090278;28;20517;-70
2023/04/01 10:30:35;;;;;;;11.50;6.07;;;;;;;-143.84;67.12;45100.47;5080973;28;20507;-71
2023/04/01 10:33:41;;;;;;;16.53;5.40;;;;;;;-143.84;66.84;45098.56;5089492;28;20476;-71
2023/04/01 10:36:42;;;;;;;19.40;6.20;;;;;;;-143.84;66.27;45087.16;5089568;28;20551;-71
2023/04/01 10:39:53;;;;;;;16.93;6.50;;;;;;;-143.84;66.27;45085.25;5056253;28;20444;-71
2023/04/01 10:42:56;;;;;;;15.93;6.17;;;;;;;-143.84;65.65;45066.22;5089533;28;20481;-71
2023/04/01 10:45:52;;;;;;;13.53;5.43;;;;;;;-143.84;65.33;45094.78;5089289;28;20479;-71
2023/04/01 10:48:33;;;;;;;22.07;5.10;;;;;;;-143.84;64.71;45083.34;5088932;28;20442;-71
2023/04/01 10:51:39;;;;;;;13.27;5.10;;;;;;;-143.84;63.86;45102.38;5088449;28;20508;-71
2023/04/01 10:54:22;;;;;;;14.20;5.43;;;;;;;-143.84;63.42;45050.97;5088671;28;20454;-71
2023/04/01 10:56:56;;;;;;;18.27;5.60;;;;;;;-143.84;64.43;45087.16;5088584;28;20447;-70
2023/04/01 10:59:49;;;;;;;15.53;6.63;;;;;;;-143.84;64.78;45075.72;5088810;28;20442;-71
2023/04/01 11:03:11;;;;;;;19.97;7.20;;;;;;;-143.84;64.31;45070.00;5089197;28;20450;-71
2023/04/01 11:06:16;;;;;;;17.63;7.30;;;;;;;-143.84;65.15;45073.81;5089153;28;20484;-71
2023/04/01 11:09:16;;;;;;;32.23;13.83;;;;;;;-143.84;65.13;45071.91;5089128;28;20452;-71
2023/04/01 11:12:20;;;;;;;30.97;14.77;;;;;;;-143.84;65.15;45108.09;5089170;28;20476;-71
2023/04/01 11:15:27;;;;;;;18.90;8.50;;;;;;;-143.84;66.13;45089.06;5089165;28;20454;-71
2023/04/01 11:18:35;;;;;;;10.47;6.10;;;;;;;-143.84;63.87;45096.66;5089243;28;20453;-71
2023/04/01 11:21:32;;;;;;;15.90;6.87;;;;;;;-143.84;63.28;45110.00;5071936;28;20516;-71
2023/04/01 11:24:17;;;;;;;14.07;6.17;;;;;;;-143.84;63.66;45087.16;5088737;28;20521;-71
2023/04/01 11:26:59;;;;;;;24.83;7.53;;;;;;;-143.84;63.69;45102.38;5089187;28;21241;-71
2023/04/01 11:29:44;;;;;;;12.80;5.83;;;;;;;-143.84;61.17;45081.44;5088991;28;20508;-71
2023/04/01 11:32:25;;;;;;;12.30;5.30;;;;;;;-143.84;61.40;45113.81;5088661;28;20957;-71
2023/04/01 11:35:03;;;;;;;8.77;5.27;;;;;;;-143.84;60.92;45079.53;5088486;28;20945;-71
2023/04/01 11:37:40;;;;;;;17.40;5.77;;;;;;;-143.84;59.71;45087.16;5088461;28;20909;-71
2023/04/01 11:40:23;;;;;;;16.67;5.83;;;;;;;-143.84;59.18;45081.44;5088931;28;20504;-71
2023/04/01 11:42:56;;;;;;;9.20;4.87;;;;;;;-143.84;58.96;45098.56;5088862;28;20471;-71
2023/04/01 11:45:37;;;;;;;13.27;4.90;;;;;;;-143.84;58.94;45090.97;5088892;28;20904;-71
2023/04/01 11:48:21;;;;;;;10.53;4.70;;;;;;;-143.84;60.01;45075.72;5088687;28;20443;-71
2023/04/01 11:51:08;;;;;;;13.13;5.93;;;;;;;-143.84;60.30;45090.97;5088095;28;20435;-71
2023/04/01 11:53:45;;;;;;;13.33;5.40;;;;;;;-143.84;61.38;45070.00;5087879;28;20446;-71
2023/04/01 11:56:33;;;;;;;18.87;5.83;;;;;;;-143.84;62.03;45071.91;5088203;28;20435;-71